Time;durP1;ratioP1;P1;durP2;ratioP2;P2;SDS_P1;SDS_P2;PMS_P1;PMS_P2;Temp;Humidity;BMP_temperature;BMP_pressure;BME280_temperature;BME280_humidity;BME280_pressure;Samples;Min_cycle;Max_cycle;Signal;HPM_P1;HPM_P2
2022/07/28 00:00:48;;;;;;;;;;;;;;;17.12;49.60;101710.13;5047773;28;19912;-54
2022/07/28 00:03:13;;;;;;;;;;;;;;;17.08;49.51;101708.63;5045793;28;20367;-51
2022/07/28 00:05:39;;;;;;;;;;;;;;;17.05;49.63;101710.56;5044080;28;19920;-51
2022/07/28 00:08:05;;;;;;;;;;;;;;;17.05;49.71;101707.06;5043082;28;19920;-54
2022/07/28 00:10:31;;;;;;;;;;;;;;;17.04;49.72;101711.50;5040442;28;20448;-57
2022/07/28 00:12:58;;;;;;;;;;;;;;;17.04;49.72;101714.16;5045200;28;20332;-52
2022/07/28 00:15:23;;;;;;;;;;;;;;;17.05;49.72;101717.69;5040340;28;20014;-55
2022/07/28 00:17:49;;;;;;;;;;;;;;;17.00;49.74;101719.81;5046878;28;19921;-56
2022/07/28 00:20:14;;;;;;;;;;;;;;;16.94;49.99;101723.72;5040956;28;20303;-54
2022/07/28 00:22:40;;;;;;;;;;;;;;;16.89;50.14;101709.88;5039399;28;19920;-56
2022/07/28 00:25:06;;;;;;;;;;;;;;;16.85;50.20;101714.56;5042839;28;19995;-55
2022/07/28 00:27:31;;;;;;;;;;;;;;;16.81;50.33;101722.88;5043625;28;20014;-52
2022/07/28 00:29:56;;;;;;;;;;;;;;;16.79;50.56;101716.81;5044905;28;19997;-54
2022/07/28 00:32:22;;;;;;;;;;;;;;;16.76;50.59;101713.41;5043476;28;19967;-53
2022/07/28 00:34:47;;;;;;;;;;;;;;;16.75;50.47;101719.66;5048304;28;21540;-54
2022/07/28 00:37:12;;;;;;;;;;;;;;;16.75;50.59;101719.66;5043826;28;19928;-53
2022/07/28 00:39:38;;;;;;;;;;;;;;;16.76;50.54;101718.72;5044036;28;19924;-54
2022/07/28 00:42:03;;;;;;;;;;;;;;;16.75;50.59;101719.66;5046772;28;19920;-51
2022/07/28 00:44:28;;;;;;;;;;;;;;;16.75;50.53;101717.00;5043397;28;19916;-54
2022/07/28 00:46:54;;;;;;;;;;;;;;;16.75;50.61;101719.66;5044765;28;19936;-54
2022/07/28 00:49:19;;;;;;;;;;;;;;;16.73;50.56;101716.25;5043855;28;20342;-54
2022/07/28 00:51:44;;;;;;;;;;;;;;;16.73;50.56;101716.25;5045887;28;19932;-53
2022/07/28 00:54:10;;;;;;;;;;;;;;;16.68;50.74;101715.75;5034747;28;19920;-54
2022/07/28 00:56:35;;;;;;;;;;;;;;;16.65;50.84;101717.72;5034867;28;19924;-52
2022/07/28 00:59:01;;;;;;;;;;;;;;;16.64;50.87;101716.91;5033071;28;19917;-54
2022/07/28 01:01:26;;;;;;;;;;;;;;;16.63;50.84;101717.84;5043944;28;20003;-52
2022/07/28 01:03:56;;;;;;;;;;;;;;;16.60;50.94;101721.56;5041841;28;20354;-54
2022/07/28 01:06:21;;;;;;;;;;;;;;;16.58;50.95;101719.97;5037226;28;19931;-54
2022/07/28 01:09:12;;;;;;;;;;;;;;;16.54;50.93;101721.13;5024172;28;19958;-54
2022/07/28 01:11:41;;;;;;;;;;;;;;;16.52;51.01;101718.56;5037513;28;20003;-54
2022/07/28 01:14:18;;;;;;;;;;;;;;;16.52;50.95;101717.72;5054631;28;19991;-52
2022/07/28 01:16:55;;;;;;;;;;;;;;;16.50;51.00;101720.47;5047165;28;19921;-52
2022/07/28 01:19:39;;;;;;;;;;;;;;;16.47;50.99;101715.41;5046335;28;20011;-54
2022/07/28 01:22:07;;;;;;;;;;;;;;;16.44;51.04;101716.44;5050065;28;19969;-54
2022/07/28 01:24:51;;;;;;;;;;;;;;;16.45;50.98;101719.97;5036967;28;20765;-52
2022/07/28 01:27:23;;;;;;;;;;;;;;;16.40;51.04;101709.66;5042669;28;19919;-52
2022/07/28 01:29:48;;;;;;;;;;;;;;;16.38;51.12;101722.19;5042806;28;20343;-50
2022/07/28 01:32:22;;;;;;;;;;;;;;;16.36;51.04;101716.09;5036439;28;20569;-51
2022/07/28 01:34:47;;;;;;;;;;;;;;;16.36;51.20;101709.94;5043759;28;19923;-55
2022/07/28 01:37:17;;;;;;;;;;;;;;;16.28;51.32;101708.66;5045980;28;19921;-52
2022/07/28 01:39:43;;;;;;;;;;;;;;;16.21;51.60;101707.34;5046491;28;19921;-52
2022/07/28 01:42:11;;;;;;;;;;;;;;;16.18;51.66;101706.72;5043122;28;20011;-52
2022/07/28 01:44:40;;;;;;;;;;;;;;;16.13;52.05;101707.84;5046225;28;19923;-54
2022/07/28 01:47:06;;;;;;;;;;;;;;;16.12;51.99;101706.16;5041780;28;20402;-52
2022/07/28 01:49:32;;;;;;;;;;;;;;;16.13;51.97;101709.66;5040171;28;20015;-52
2022/07/28 01:51:59;;;;;;;;;;;;;;;16.12;51.94;101705.31;5040610;28;19916;-54
2022/07/28 01:54:27;;;;;;;;;;;;;;;16.12;51.98;101700.84;5041002;28;19920;-53
2022/07/28 01:56:54;;;;;;;;;;;;;;;16.15;51.93;101703.28;5033993;28;19920;-53
2022/07/28 01:59:20;;;;;;;;;;;;;;;16.14;51.99;101703.41;5040138;28;19923;-53
2022/07/28 02:01:46;;;;;;;;;;;;;;;16.11;51.99;101696.47;5041740;28;19917;-52
2022/07/28 02:04:12;;;;;;;;;;;;;;;16.10;51.94;101697.47;5039358;28;19931;-52
2022/07/28 02:06:39;;;;;;;;;;;;;;;16.06;52.01;101703.03;5041634;28;19920;-52
2022/07/28 02:09:05;;;;;;;;;;;;;;;16.01;51.98;101698.03;5049630;28;19948;-55
2022/07/28 02:11:38;;;;;;;;;;;;;;;15.98;52.08;101699.09;5048635;28;19912;-53
2022/07/28 02:14:08;;;;;;;;;;;;;;;15.93;52.06;101692.41;5044318;28;19932;-54
2022/07/28 02:16:33;;;;;;;;;;;;;;;15.88;52.30;101697.16;5045306;28;20000;-57
2022/07/28 02:18:59;;;;;;;;;;;;;;;15.84;52.42;101699.13;5046977;28;19922;-55
2022/07/28 02:21:26;;;;;;;;;;;;;;;15.82;52.28;101701.84;5045589;28;19962;-55
2022/07/28 02:23:53;;;;;;;;;;;;;;;15.81;52.45;101692.19;5048586;28;19943;-56
2022/07/28 02:26:20;;;;;;;;;;;;;;;15.80;52.44;101700.25;5045089;28;20130;-56
2022/07/28 02:28:50;;;;;;;;;;;;;;;15.79;52.62;101694.13;5046300;28;19974;-58
2022/07/28 02:31:19;;;;;;;;;;;;;;;15.79;52.63;101696.78;5042958;28;19927;-55
2022/07/28 02:33:45;;;;;;;;;;;;;;;15.79;52.65;101691.47;5050088;28;19917;-57
2022/07/28 02:36:24;;;;;;;;;;;;;;;15.78;52.62;101691.56;5050112;28;19916;-54
2022/07/28 02:38:53;;;;;;;;;;;;;;;15.73;52.78;101689.19;5046839;28;19955;-56
2022/07/28 02:41:24;;;;;;;;;;;;;;;15.72;52.79;101694.63;5042075;28;20375;-56
2022/07/28 02:43:51;;;;;;;;;;;;;;;15.71;52.75;101701.72;5036949;28;19923;-51
2022/07/28 02:46:22;;;;;;;;;;;;;;;15.67;52.94;101701.06;5033831;28;20479;-52
2022/07/28 02:48:49;;;;;;;;;;;;;;;15.64;53.08;101705.72;5049335;28;19913;-52
2022/07/28 02:51:16;;;;;;;;;;;;;;;15.62;52.98;101707.63;5051048;28;20295;-54
2022/07/28 02:53:42;;;;;;;;;;;;;;;15.62;53.06;101708.47;5051760;28;20299;-55
2022/07/28 02:56:08;;;;;;;;;;;;;;;15.61;52.98;101716.53;5049268;28;19916;-53
2022/07/28 02:58:34;;;;;;;;;;;;;;;15.61;52.98;101714.72;5049544;28;19931;-54
2022/07/28 03:00:59;;;;;;;;;;;;;;;15.64;52.95;101722.47;5045466;28;19921;-58
2022/07/28 03:03:24;;;;;;;;;;;;;;;15.64;52.92;101717.16;5053440;28;19948;-55
2022/07/28 03:05:50;;;;;;;;;;;;;;;15.62;52.94;101719.06;5023920;28;20283;-53
2022/07/28 03:08:16;;;;;;;;;;;;;;;15.61;52.92;101721.84;5048313;28;20012;-54
2022/07/28 03:10:41;;;;;;;;;;;;;;;15.57;52.99;101721.19;5046222;28;19912;-57
2022/07/28 03:13:07;;;;;;;;;;;;;;;15.55;53.13;101723.91;5052233;28;19947;-55
2022/07/28 03:15:33;;;;;;;;;;;;;;;15.53;53.15;101731.13;5036954;28;19920;-51
2022/07/28 03:17:59;;;;;;;;;;;;;;;15.53;53.15;101731.13;5047804;28;19929;-54
2022/07/28 03:20:24;;;;;;;;;;;;;;;15.51;53.07;101733.00;5046114;28;19924;-53
2022/07/28 03:22:50;;;;;;;;;;;;;;;15.48;53.16;101741.19;5048411;28;19917;-54
2022/07/28 03:25:18;;;;;;;;;;;;;;;15.45;53.22;101741.38;5039897;28;24185;-58
2022/07/28 03:27:45;;;;;;;;;;;;;;;15.44;53.24;101747.63;5049013;28;19942;-56
2022/07/28 03:30:12;;;;;;;;;;;;;;;15.45;53.34;101746.66;5045195;28;20038;-54
2022/07/28 03:32:40;;;;;;;;;;;;;;;15.44;53.36;101739.66;5040829;28;20002;-52
2022/07/28 03:35:06;;;;;;;;;;;;;;;15.41;53.27;101753.09;5037738;28;19925;-50
2022/07/28 03:37:37;;;;;;;;;;;;;;;15.39;53.43;101749.69;5048612;28;19929;-54
2022/07/28 03:40:04;;;;;;;;;;;;;;;15.37;53.30;101752.44;5038160;28;19920;-56
2022/07/28 03:42:29;;;;;;;;;;;;;;;15.35;53.33;101759.66;5051912;28;20436;-55
2022/07/28 03:44:55;;;;;;;;;;;;;;;15.32;53.57;101764.28;5045353;28;20375;-55
2022/07/28 03:47:21;;;;;;;;;;;;;;;15.30;53.62;101768.84;5044537;28;19939;-53
2022/07/28 03:49:47;;;;;;;;;;;;;;;15.29;53.59;101770.63;5045364;28;19928;-56
2022/07/28 03:52:13;;;;;;;;;;;;;;;15.30;53.51;101761.72;5047014;28;19920;-56
2022/07/28 03:54:38;;;;;;;;;;;;;;;15.31;53.49;101767.88;5046445;28;19917;-56
2022/07/28 03:57:03;;;;;;;;;;;;;;;15.30;53.44;101771.47;5049918;28;20289;-53
2022/07/28 03:59:28;;;;;;;;;;;;;;;15.29;53.53;101769.78;5049264;28;19916;-54
2022/07/28 04:01:55;;;;;;;;;;;;;;;15.28;53.57;101774.22;5037744;28;19925;-54
2022/07/28 04:04:20;;;;;;;;;;;;;;;15.29;53.54;101775.91;5042031;28;19920;-54
2022/07/28 04:06:45;;;;;;;;;;;;;;;15.29;53.56;101775.06;5041365;28;19917;-55
2022/07/28 04:09:11;;;;;;;;;;;;;;;15.29;53.55;101777.72;5052809;28;19928;-55
2022/07/28 04:11:36;;;;;;;;;;;;;;;15.28;53.70;101773.38;5038493;28;19942;-54
2022/07/28 04:14:01;;;;;;;;;;;;;;;15.30;53.70;101774.13;5050519;28;19916;-54
2022/07/28 04:16:27;;;;;;;;;;;;;;;15.31;53.68;101784.63;5041983;28;20161;-55
2022/07/28 04:18:52;;;;;;;;;;;;;;;15.29;53.81;101786.53;5047827;28;19931;-53
2022/07/28 04:21:17;;;;;;;;;;;;;;;15.28;53.84;101790.13;5036522;28;19916;-56
2022/07/28 04:23:42;;;;;;;;;;;;;;;15.28;53.97;101783.97;5043158;28;19925;-56
2022/07/28 04:26:08;;;;;;;;;;;;;;;15.30;54.00;101787.41;5048491;28;19924;-54
2022/07/28 04:28:33;;;;;;;;;;;;;;;15.34;53.99;101787.09;5048133;28;19951;-54
2022/07/28 04:30:58;;;;;;;;;;;;;;;15.35;54.12;101791.47;5045487;28;19978;-56
2022/07/28 04:33:24;;;;;;;;;;;;;;;15.36;54.22;101792.31;5044575;28;19959;-54
2022/07/28 04:35:51;;;;;;;;;;;;;;;15.38;54.35;101793.06;5047260;28;19913;-51
2022/07/28 04:38:16;;;;;;;;;;;;;;;15.39;54.19;101792.13;5047111;28;19983;-52
2022/07/28 04:40:42;;;;;;;;;;;;;;;15.40;54.33;101788.53;5043609;28;20463;-54
2022/07/28 04:43:09;;;;;;;;;;;;;;;15.38;54.48;101791.28;5049739;28;19923;-52
2022/07/28 04:45:34;;;;;;;;;;;;;;;15.37;54.56;101794.00;5045948;28;19944;-54
2022/07/28 04:48:00;;;;;;;;;;;;;;;15.41;54.56;101795.53;5048960;28;19978;-54
2022/07/28 04:50:25;;;;;;;;;;;;;;;15.47;54.58;101797.81;5045153;28;19931;-52
2022/07/28 04:52:50;;;;;;;;;;;;;;;15.52;54.51;101793.06;5046706;28;20455;-54
2022/07/28 04:55:16;;;;;;;;;;;;;;;15.54;54.44;101793.81;5042924;28;19923;-56
2022/07/28 04:57:42;;;;;;;;;;;;;;;15.57;54.64;101786.63;5042706;28;19978;-52
2022/07/28 05:00:16;;;;;;;;;;;;;;;15.59;54.66;101788.22;5046983;28;19957;-51
2022/07/28 05:02:43;;;;;;;;;;;;;;;15.64;54.66;101795.94;5041756;28;19923;-52
2022/07/28 05:05:09;;;;;;;;;;;;;;;15.67;54.81;101787.75;5042179;28;19916;-54
2022/07/28 05:07:34;;;;;;;;;;;;;;;15.69;54.79;101788.50;5040374;28;20276;-51
2022/07/28 05:10:00;;;;;;;;;;;;;;;15.72;54.84;101796.28;5045983;28;20380;-52
2022/07/28 05:12:25;;;;;;;;;;;;;;;15.74;55.00;101797.03;5044666;28;20074;-50
2022/07/28 05:14:51;;;;;;;;;;;;;;;15.77;55.03;101796.84;5043656;28;19919;-56
2022/07/28 05:17:16;;;;;;;;;;;;;;;15.83;54.91;101801.75;5043251;28;19924;-53
2022/07/28 05:19:41;;;;;;;;;;;;;;;15.91;54.93;101795.16;5046275;28;19917;-53
2022/07/28 05:22:07;;;;;;;;;;;;;;;15.97;54.86;101792.09;5039606;28;19964;-53
2022/07/28 05:24:32;;;;;;;;;;;;;;;16.02;54.87;101797.97;5044560;28;21892;-54
2022/07/28 05:26:57;;;;;;;;;;;;;;;16.05;54.89;101800.44;5042598;28;19916;-54
2022/07/28 05:29:23;;;;;;;;;;;;;;;16.10;54.95;101803.66;5044326;28;20004;-52
2022/07/28 05:31:48;;;;;;;;;;;;;;;16.14;55.00;101813.09;5032382;28;19921;-51
2022/07/28 05:34:14;;;;;;;;;;;;;;;16.17;54.95;101809.41;5038298;28;19924;-55
2022/07/28 05:36:39;;;;;;;;;;;;;;;16.18;55.17;101803.16;5043042;28;19916;-53
2022/07/28 05:39:04;;;;;;;;;;;;;;;16.21;55.12;101807.41;5041654;28;19925;-51
2022/07/28 05:41:29;;;;;;;;;;;;;;;16.25;55.24;101814.25;5032592;28;19974;-52
2022/07/28 05:43:56;;;;;;;;;;;;;;;16.29;55.21;101813.06;5053053;28;19995;-51
2022/07/28 05:46:21;;;;;;;;;;;;;;;16.33;55.15;101811.91;5054412;28;19952;-52
2022/07/28 05:48:47;;;;;;;;;;;;;;;16.35;55.02;101810.03;5051693;28;19967;-53
2022/07/28 05:51:13;;;;;;;;;;;;;;;16.40;54.96;101815.03;5036160;28;20317;-53
2022/07/28 05:53:38;;;;;;;;;;;;;;;16.43;54.91;101810.34;5039329;28;19921;-54
2022/07/28 05:56:03;;;;;;;;;;;;;;;16.46;54.90;101815.47;5048420;28;19977;-58
2022/07/28 05:58:29;;;;;;;;;;;;;;;16.50;54.94;101812.63;5047228;28;19920;-57
2022/07/28 06:00:57;;;;;;;;;;;;;;;16.53;54.88;101820.41;5044849;28;20005;-55
2022/07/28 06:03:22;;;;;;;;;;;;;;;16.57;54.73;101816.56;5036031;28;19927;-53
2022/07/28 06:05:49;;;;;;;;;;;;;;;16.61;54.49;101828.69;5044930;28;20035;-56
2022/07/28 06:08:14;;;;;;;;;;;;;;;16.62;54.32;101822.44;5031578;28;20049;-54
2022/07/28 06:10:58;;;;;;;;;;;;;;;16.65;54.39;101829.34;5048257;28;20031;-55
2022/07/28 06:13:23;;;;;;;;;;;;;;;16.67;54.26;101827.44;5040208;28;19927;-54
2022/07/28 06:15:50;;;;;;;;;;;;;;;16.70;54.03;101828.09;5040390;28;19920;-53
2022/07/28 06:18:15;;;;;;;;;;;;;;;16.72;53.85;101831.47;5045517;28;19925;-54
2022/07/28 06:20:41;;;;;;;;;;;;;;;16.75;53.77;101830.44;5042197;28;19920;-52
2022/07/28 06:23:06;;;;;;;;;;;;;;;16.77;53.89;101828.53;5047297;28;19917;-55
2022/07/28 06:25:31;;;;;;;;;;;;;;;16.83;53.53;101835.25;5037048;28;19963;-56
2022/07/28 06:27:58;;;;;;;;;;;;;;;16.88;53.44;101835.78;5028996;28;20041;-52
2022/07/28 06:30:24;;;;;;;;;;;;;;;16.93;53.21;101839.00;5032818;28;20639;-52
2022/07/28 06:32:49;;;;;;;;;;;;;;;16.95;53.32;101834.44;5032619;28;20387;-51
2022/07/28 06:35:15;;;;;;;;;;;;;;;16.97;53.24;101835.22;5030615;28;19925;-55
2022/07/28 06:37:43;;;;;;;;;;;;;;;16.99;53.15;101833.28;5033262;28;19927;-54
2022/07/28 06:40:10;;;;;;;;;;;;;;;16.97;53.17;101829.88;5021214;28;19917;-54
2022/07/28 06:42:36;;;;;;;;;;;;;;;16.98;53.25;101825.41;5041090;28;20063;-52
2022/07/28 06:45:01;;;;;;;;;;;;;;;17.02;53.24;101827.75;5038852;28;20059;-52
2022/07/28 06:47:26;;;;;;;;;;;;;;;17.08;53.01;101825.63;5047322;28;19923;-51
2022/07/28 06:49:51;;;;;;;;;;;;;;;17.10;52.97;101829.06;5049549;28;19912;-51
2022/07/28 06:52:19;;;;;;;;;;;;;;;17.13;52.97;101828.84;5052289;28;19931;-52
2022/07/28 06:54:45;;;;;;;;;;;;;;;17.14;52.88;101831.38;5047906;28;19998;-52
2022/07/28 06:57:12;;;;;;;;;;;;;;;17.17;52.90;101825.88;5051256;28;19979;-58
2022/07/28 06:59:37;;;;;;;;;;;;;;;17.19;52.63;101829.28;5048188;28;19932;-53
2022/07/28 07:02:03;;;;;;;;;;;;;;;17.21;52.50;101832.69;5054205;28;19917;-54
2022/07/28 07:04:28;;;;;;;;;;;;;;;17.23;52.76;101835.22;5050404;28;19926;-53
2022/07/28 07:06:53;;;;;;;;;;;;;;;17.25;52.57;101838.63;5051444;28;19920;-52
2022/07/28 07:09:19;;;;;;;;;;;;;;;17.25;52.64;101837.75;5056366;28;20409;-54
2022/07/28 07:11:44;;;;;;;;;;;;;;;17.28;52.48;101837.56;5053006;28;19928;-55
2022/07/28 07:14:09;;;;;;;;;;;;;;;17.32;52.38;101837.25;5055765;28;19978;-53
2022/07/28 07:16:35;;;;;;;;;;;;;;;17.34;52.41;101835.31;5050993;28;20470;-52
2022/07/28 07:19:00;;;;;;;;;;;;;;;17.35;52.29;101833.53;5049799;28;19912;-55
2022/07/28 07:21:25;;;;;;;;;;;;;;;17.41;52.28;101830.44;5051925;28;19924;-53
2022/07/28 07:23:50;;;;;;;;;;;;;;;17.49;52.16;101832.56;5052509;28;19931;-54
2022/07/28 07:26:16;;;;;;;;;;;;;;;17.57;51.73;101832.03;5048433;28;19920;-56
2022/07/28 07:28:41;;;;;;;;;;;;;;;17.62;51.76;101833.41;5048734;28;19924;-54
2022/07/28 07:31:06;;;;;;;;;;;;;;;17.64;51.67;101834.13;5051377;28;20411;-54
2022/07/28 07:33:32;;;;;;;;;;;;;;;17.69;51.51;101841.81;5048940;28;19917;-55
2022/07/28 07:35:57;;;;;;;;;;;;;;;17.74;51.20;101839.66;5046979;28;19920;-52
2022/07/28 07:38:22;;;;;;;;;;;;;;;17.81;51.08;101838.28;5054085;28;20473;-54
2022/07/28 07:40:49;;;;;;;;;;;;;;;17.86;51.02;101843.28;5053555;28;19913;-52
2022/07/28 07:43:15;;;;;;;;;;;;;;;17.93;51.34;101838.38;5052798;28;19920;-54
2022/07/28 07:45:40;;;;;;;;;;;;;;;17.97;50.89;101846.06;5052536;28;19921;-53
2022/07/28 07:48:05;;;;;;;;;;;;;;;18.01;50.86;101840.50;5048161;28;19956;-53
2022/07/28 07:50:31;;;;;;;;;;;;;;;18.02;50.62;101842.22;5051884;28;19958;-53
2022/07/28 07:52:56;;;;;;;;;;;;;;;18.05;50.56;101848.16;5053247;28;19963;-53
2022/07/28 07:55:22;;;;;;;;;;;;;;;18.09;50.40;101844.31;5052738;28;20020;-52
2022/07/28 07:57:47;;;;;;;;;;;;;;;18.12;50.39;101843.25;5055236;28;20001;-53
2022/07/28 08:00:13;;;;;;;;;;;;;;;18.15;50.24;101847.50;5057437;28;20378;-55
2022/07/28 08:02:41;;;;;;;;;;;;;;;18.17;50.08;101849.09;5048140;28;19916;-52
2022/07/28 08:05:07;;;;;;;;;;;;;;;18.18;50.01;101842.81;5053968;28;19920;-54
2022/07/28 08:07:33;;;;;;;;;;;;;;;18.21;50.10;101845.25;5053182;28;19934;-52
2022/07/28 08:09:58;;;;;;;;;;;;;;;18.24;49.80;101841.50;5053494;28;19908;-53
2022/07/28 08:12:23;;;;;;;;;;;;;;;18.30;50.03;101845.53;5051449;28;19921;-54
2022/07/28 08:14:48;;;;;;;;;;;;;;;18.35;49.67;101841.56;5053887;28;19919;-52
2022/07/28 08:17:14;;;;;;;;;;;;;;;18.41;49.41;101845.59;5047520;28;19987;-52
2022/07/28 08:19:39;;;;;;;;;;;;;;;18.41;49.22;101843.78;5058146;28;20375;-53
2022/07/28 08:22:04;;;;;;;;;;;;;;;18.42;49.04;101844.63;5052220;28;19916;-53
2022/07/28 08:24:30;;;;;;;;;;;;;;;18.42;49.15;101850.81;5056575;28;19919;-52
2022/07/28 08:26:55;;;;;;;;;;;;;;;18.46;48.90;101856.75;5048590;28;19925;-53
2022/07/28 08:29:20;;;;;;;;;;;;;;;18.49;48.88;101869.00;5057374;28;19923;-53
2022/07/28 08:31:46;;;;;;;;;;;;;;;18.51;48.89;101864.41;5048545;28;19920;-52
2022/07/28 08:34:11;;;;;;;;;;;;;;;18.52;48.73;101864.31;5047044;28;19921;-52
2022/07/28 08:36:36;;;;;;;;;;;;;;;18.55;48.74;101863.22;5047792;28;19936;-52
2022/07/28 08:39:02;;;;;;;;;;;;;;;18.56;48.43;101863.09;5032090;28;20315;-52
2022/07/28 08:41:45;;;;;;;;;;;;;;;18.60;48.70;101858.41;5049453;28;19919;-52
2022/07/28 08:44:14;;;;;;;;;;;;;;;18.67;48.42;101864.97;5050368;28;19952;-54
2022/07/28 08:46:40;;;;;;;;;;;;;;;18.75;48.63;101859.06;5057283;28;19982;-53
2022/07/28 08:49:06;;;;;;;;;;;;;;;18.86;48.38;101861.78;5053178;28;20380;-53
2022/07/28 08:51:32;;;;;;;;;;;;;;;18.94;48.13;101858.56;5049158;28;20412;-54
2022/07/28 08:53:58;;;;;;;;;;;;;;;18.98;47.60;101860.03;5060241;28;19923;-54
2022/07/28 08:56:23;;;;;;;;;;;;;;;19.02;47.62;101857.97;5049805;28;20051;-53
2022/07/28 08:58:49;;;;;;;;;;;;;;;19.03;47.58;101859.69;5048424;28;19970;-53
2022/07/28 09:01:15;;;;;;;;;;;;;;;19.05;47.71;101857.75;5055384;28;20407;-52
2022/07/28 09:03:40;;;;;;;;;;;;;;;19.06;47.67;101856.78;5049289;28;20364;-54
2022/07/28 09:06:05;;;;;;;;;;;;;;;19.09;47.58;101859.22;5051144;28;20000;-52
2022/07/28 09:08:31;;;;;;;;;;;;;;;19.10;47.31;101854.72;5049368;28;20386;-54
2022/07/28 09:10:56;;;;;;;;;;;;;;;19.13;47.47;101852.69;5045737;28;19928;-53
2022/07/28 09:13:21;;;;;;;;;;;;;;;19.17;47.41;101851.47;5053411;28;19970;-52
2022/07/28 09:15:47;;;;;;;;;;;;;;;19.21;47.40;101857.41;5047157;28;19971;-52
2022/07/28 09:18:12;;;;;;;;;;;;;;;19.24;47.13;101853.69;5050944;28;19963;-53
2022/07/28 09:20:39;;;;;;;;;;;;;;;19.26;47.12;101849.91;5051824;28;19995;-53
2022/07/28 09:23:05;;;;;;;;;;;;;;;19.27;46.91;101845.44;5055600;28;19923;-54
2022/07/28 09:25:31;;;;;;;;;;;;;;;19.27;46.97;101853.44;5048004;28;20365;-52
2022/07/28 09:28:09;;;;;;;;;;;;;;;19.26;46.64;101843.75;5052998;28;19917;-53
2022/07/28 09:30:37;;;;;;;;;;;;;;;19.29;46.47;101848.81;5049672;28;19913;-54
2022/07/28 09:33:13;;;;;;;;;;;;;;;19.33;46.73;101850.28;5043917;28;19909;-54
2022/07/28 09:35:45;;;;;;;;;;;;;;;19.37;46.61;101854.44;5046726;28;20070;-53
2022/07/28 09:38:12;;;;;;;;;;;;;;;19.43;46.32;101856.63;5050136;28;19921;-53
2022/07/28 09:40:37;;;;;;;;;;;;;;;19.47;46.33;101849.22;5040915;28;20034;-56
2022/07/28 09:43:03;;;;;;;;;;;;;;;19.50;45.94;101851.66;5052874;28;19951;-57
2022/07/28 09:45:28;;;;;;;;;;;;;;;19.47;46.21;101851.91;5047616;28;19939;-54
2022/07/28 09:48:10;;;;;;;;;;;;;;;19.47;46.19;101858.06;5045391;28;19978;-54
2022/07/28 09:50:36;;;;;;;;;;;;;;;19.50;45.63;101852.50;5039653;28;19966;-54
2022/07/28 09:53:21;;;;;;;;;;;;;;;19.48;45.52;101849.09;5049760;28;19913;-53
2022/07/28 09:55:54;;;;;;;;;;;;;;;19.49;45.42;101852.63;5048240;28;19984;-57
2022/07/28 09:58:19;;;;;;;;;;;;;;;19.52;45.51;101849.69;5048050;28;19967;-54
2022/07/28 10:00:45;;;;;;;;;;;;;;;19.56;45.25;101842.31;5046152;28;19925;-54
2022/07/28 10:03:10;;;;;;;;;;;;;;;19.60;45.48;101841.09;5047618;28;19961;-53
2022/07/28 10:05:39;;;;;;;;;;;;;;;19.63;44.98;101840.84;5045334;28;19956;-53
2022/07/28 10:08:05;;;;;;;;;;;;;;;19.67;44.74;101842.31;5050202;28;19916;-53
2022/07/28 10:10:30;;;;;;;;;;;;;;;19.68;44.49;101844.00;5048980;28;19929;-53
2022/07/28 10:13:03;;;;;;;;;;;;;;;19.69;44.81;101845.72;5053268;28;19924;-54
2022/07/28 10:18:12;;;;;;;;;;;;;;;19.65;44.44;101833.56;5046322;28;20391;-53
2022/07/28 10:20:38;;;;;;;;;;;;;;;19.70;44.69;101841.22;5051618;28;19912;-53
2022/07/28 10:23:04;;;;;;;;;;;;;;;19.75;44.50;101836.38;5052157;28;19917;-53
2022/07/28 10:25:31;;;;;;;;;;;;;;;19.76;44.51;101836.22;5054012;28;20360;-53
2022/07/28 10:27:58;;;;;;;;;;;;;;;19.77;44.31;101827.25;5053328;28;19915;-52
2022/07/28 10:30:23;;;;;;;;;;;;;;;19.80;44.54;101832.34;5052992;28;19916;-52
2022/07/28 10:32:50;;;;;;;;;;;;;;;19.88;44.63;101830.94;5057035;28;19924;-52
2022/07/28 10:35:15;;;;;;;;;;;;;;;19.91;43.96;101833.34;5051475;28;19916;-53
2022/07/28 10:37:50;;;;;;;;;;;;;;;19.97;43.99;101822.16;5056369;28;19925;-53
2022/07/28 10:40:17;;;;;;;;;;;;;;;20.06;43.86;101824.06;5059847;28;19963;-52
2022/07/28 10:42:42;;;;;;;;;;;;;;;20.13;43.75;101820.91;5056169;28;19923;-54
2022/07/28 10:45:10;;;;;;;;;;;;;;;20.19;44.05;101820.44;5055321;28;19912;-53
2022/07/28 10:47:35;;;;;;;;;;;;;;;20.26;43.69;101821.59;5036269;28;20363;-53
2022/07/28 10:50:01;;;;;;;;;;;;;;;20.31;43.30;101821.22;5050804;28;19956;-52
2022/07/28 10:52:27;;;;;;;;;;;;;;;20.33;43.64;101817.47;5055170;28;19912;-53
2022/07/28 10:55:02;;;;;;;;;;;;;;;20.37;43.44;101823.41;5048604;28;19916;-53
2022/07/28 10:57:29;;;;;;;;;;;;;;;20.40;43.42;101818.66;5056546;28;19916;-53
2022/07/28 11:00:16;;;;;;;;;;;;;;;20.46;43.19;101817.28;5053517;28;19969;-53
2022/07/28 11:02:44;;;;;;;;;;;;;;;20.48;43.12;101820.69;5049708;28;19913;-52
2022/07/28 11:05:28;;;;;;;;;;;;;;;20.49;43.25;101821.56;5048741;28;19916;-53
2022/07/28 11:07:54;;;;;;;;;;;;;;;20.52;43.01;101810.56;5055828;28;19916;-53
2022/07/28 11:10:20;;;;;;;;;;;;;;;20.57;42.90;101819.06;5055179;28;20035;-53
2022/07/28 11:12:47;;;;;;;;;;;;;;;20.61;42.48;101825.88;5054419;28;20267;-53
2022/07/28 11:15:32;;;;;;;;;;;;;;;20.65;42.53;101824.59;5052750;28;19921;-53
2022/07/28 11:18:02;;;;;;;;;;;;;;;20.69;42.47;101820.72;5047180;28;19921;-53
2022/07/28 11:20:46;;;;;;;;;;;;;;;20.68;42.46;101821.69;5056225;28;20026;-53
2022/07/28 11:23:30;;;;;;;;;;;;;;;20.73;42.20;101825.81;5051905;28;20287;-53
2022/07/28 11:26:14;;;;;;;;;;;;;;;20.72;42.20;101816.94;5054865;28;19912;-55
2022/07/28 11:28:57;;;;;;;;;;;;;;;20.76;42.03;101820.25;5051223;28;19913;-54
2022/07/28 11:31:41;;;;;;;;;;;;;;;20.82;41.84;101817.03;5052043;28;19913;-52
2022/07/28 11:34:07;;;;;;;;;;;;;;;20.89;41.47;101815.53;5051230;28;20031;-54
2022/07/28 11:36:51;;;;;;;;;;;;;;;20.95;41.49;101822.19;5047290;28;20451;-53
2022/07/28 11:39:27;;;;;;;;;;;;;;;20.99;41.42;101818.28;5050745;28;19916;-52
2022/07/28 11:41:52;;;;;;;;;;;;;;;21.02;41.48;101816.19;5051288;28;19924;-53
2022/07/28 11:44:25;;;;;;;;;;;;;;;21.08;41.22;101813.97;5054960;28;19913;-53
2022/07/28 11:46:50;;;;;;;;;;;;;;;21.09;41.33;101804.97;5056518;28;19935;-54
2022/07/28 11:49:18;;;;;;;;;;;;;;;21.14;41.15;101816.09;5044160;28;21127;-52
2022/07/28 11:52:02;;;;;;;;;;;;;;;21.18;41.09;101812.19;5053887;28;19913;-53
2022/07/28 11:54:28;;;;;;;;;;;;;;;21.21;40.90;101800.38;5052500;28;19913;-53
2022/07/28 11:56:57;;;;;;;;;;;;;;;21.27;40.86;101799.84;5051346;28;19970;-54
2022/07/28 11:59:22;;;;;;;;;;;;;;;21.32;40.83;101798.47;5048339;28;19948;-55
2022/07/28 12:01:52;;;;;;;;;;;;;;;21.37;40.78;101808.75;5054842;28;20374;-53
2022/07/28 12:04:18;;;;;;;;;;;;;;;21.36;39.68;101798.19;5053922;28;19999;-53
2022/07/28 12:06:45;;;;;;;;;;;;;;;21.33;39.53;101799.28;5051128;28;19916;-53
2022/07/28 12:09:12;;;;;;;;;;;;;;;21.30;39.98;101800.41;5050026;28;20288;-52
2022/07/28 12:11:41;;;;;;;;;;;;;;;21.30;39.78;101797.75;5053802;28;19917;-53
2022/07/28 12:14:08;;;;;;;;;;;;;;;21.34;39.98;101794.81;5049063;28;20000;-52
2022/07/28 12:16:34;;;;;;;;;;;;;;;21.37;40.09;101798.06;5054367;28;19919;-53
2022/07/28 12:19:00;;;;;;;;;;;;;;;21.41;39.76;101791.47;5057184;28;20334;-53
2022/07/28 12:21:38;;;;;;;;;;;;;;;21.47;39.80;101790.94;5049565;28;20395;-53
2022/07/28 12:24:05;;;;;;;;;;;;;;;21.54;39.87;101785.88;5055689;28;19924;-52
2022/07/28 12:26:34;;;;;;;;;;;;;;;21.64;39.60;101791.28;5047808;28;19913;-53
2022/07/28 12:28:59;;;;;;;;;;;;;;;21.70;39.36;101789.91;5056621;28;19923;-53
2022/07/28 12:31:28;;;;;;;;;;;;;;;21.71;39.43;101780.88;5051907;28;19913;-54
2022/07/28 12:33:54;;;;;;;;;;;;;;;21.73;39.20;101786.94;5053773;28;19908;-54
2022/07/28 12:36:22;;;;;;;;;;;;;;;21.73;39.37;101785.13;5048596;28;19996;-54
2022/07/28 12:38:47;;;;;;;;;;;;;;;21.78;39.19;101793.56;5047970;28;19924;-54